createdAt,value
2018-03-07T00:01:50.154Z,94482.41
2018-03-07T00:04:16.169Z,94482.17
2018-03-07T00:06:42.185Z,94485.41
2018-03-07T00:09:08.470Z,94483.17
2018-03-07T00:11:34.558Z,94485.17
2018-03-07T00:14:00.753Z,94491.84
2018-03-07T00:16:26.756Z,94486.05
2018-03-07T00:18:52.857Z,94494.36
2018-03-07T00:21:18.923Z,94497.41
2018-03-07T00:23:44.915Z,94494.97
2018-03-07T00:26:10.930Z,94495.52
2018-03-07T00:28:36.958Z,94494.66
2018-03-07T00:31:02.940Z,94501.40
2018-03-07T00:33:28.969Z,94499.11
2018-03-07T00:35:55.011Z,94496.89
2018-03-07T00:38:21.005Z,94495.66
2018-03-07T00:40:47.036Z,94503.75
2018-03-07T00:43:13.087Z,94499.24
2018-03-07T00:45:39.172Z,94507.28
2018-03-07T00:48:05.178Z,94504.59
2018-03-07T00:50:31.225Z,94505.75
2018-03-07T00:52:57.245Z,94502.53
2018-03-07T00:55:23.266Z,94498.78
2018-03-07T00:57:49.284Z,94498.11
2018-03-07T01:00:15.393Z,94500.31
2018-03-07T01:02:41.409Z,94495.81
2018-03-07T01:05:07.430Z,94494.96
2018-03-07T01:07:33.426Z,94500.55
2018-03-07T01:09:59.449Z,94498.03
2018-03-07T01:12:25.446Z,94506.52
2018-03-07T01:14:51.437Z,94495.11
2018-03-07T01:17:17.453Z,94500.61
2018-03-07T01:19:43.428Z,94497.73
2018-03-07T01:22:09.406Z,94498.95
2018-03-07T01:24:35.421Z,94494.66
2018-03-07T01:27:01.433Z,94499.64
2018-03-07T01:29:27.461Z,94501.61
2018-03-07T01:31:53.450Z,94503.01
2018-03-07T01:34:19.435Z,94502.84
2018-03-07T01:36:45.467Z,94498.63
2018-03-07T01:39:11.494Z,94498.02
2018-03-07T01:41:37.526Z,94499.78
2018-03-07T01:44:03.498Z,94502.77
2018-03-07T01:46:29.621Z,94510.58
2018-03-07T01:48:55.621Z,94507.52
2018-03-07T01:51:21.568Z,94505.00
2018-03-07T01:53:47.644Z,94497.87
2018-03-07T01:56:13.645Z,94497.09
2018-03-07T01:58:39.678Z,94494.88
2018-03-07T02:01:05.774Z,94494.28
2018-03-07T02:03:31.789Z,94489.47
2018-03-07T02:05:57.861Z,94494.27
2018-03-07T02:08:23.861Z,94484.32
2018-03-07T02:10:49.896Z,94491.45
2018-03-07T02:13:15.918Z,94490.92
2018-03-07T02:15:42.028Z,94485.47
2018-03-07T02:18:08.009Z,94487.31
2018-03-07T02:20:34.026Z,94490.52
2018-03-07T02:23:00.223Z,94485.55
2018-03-07T02:25:26.292Z,94488.52
2018-03-07T02:27:52.325Z,94489.91
2018-03-07T02:30:18.325Z,94493.95
2018-03-07T02:32:44.423Z,94489.77
2018-03-07T02:35:10.399Z,94485.69
2018-03-07T02:37:36.405Z,94493.42
2018-03-07T02:40:02.458Z,94488.38
2018-03-07T02:42:28.503Z,94489.52
2018-03-07T02:44:54.473Z,94486.03
2018-03-07T02:47:20.483Z,94495.36
2018-03-07T02:49:46.558Z,94491.30
2018-03-07T02:52:12.488Z,94486.86
2018-03-07T02:54:38.495Z,94500.61
2018-03-07T02:57:04.463Z,94494.03
2018-03-07T02:59:30.468Z,94488.36
2018-03-07T03:01:56.461Z,94492.42
2018-03-07T03:04:22.451Z,94491.59
2018-03-07T03:06:48.458Z,94491.44
2018-03-07T03:09:14.458Z,94499.00
2018-03-07T03:11:40.438Z,94494.96
2018-03-07T03:14:06.375Z,94496.81
2018-03-07T03:16:32.389Z,94495.83
2018-03-07T03:18:58.373Z,94504.28
2018-03-07T03:21:24.424Z,94503.22
2018-03-07T03:23:50.440Z,94499.99
2018-03-07T03:26:16.473Z,94509.95
2018-03-07T03:28:42.483Z,94505.42
2018-03-07T03:31:08.540Z,94508.34
2018-03-07T03:33:34.550Z,94511.55
2018-03-07T03:36:00.585Z,94505.28
2018-03-07T03:38:26.586Z,94511.47
2018-03-07T03:40:52.592Z,94515.30
2018-03-07T03:43:18.639Z,94518.22
2018-03-07T03:45:44.803Z,94513.92
2018-03-07T03:48:10.822Z,94520.50
2018-03-07T03:50:36.848Z,94516.30
2018-03-07T03:53:02.865Z,94519.51
2018-03-07T03:55:28.892Z,94526.70
2018-03-07T03:57:54.914Z,94525.75
2018-03-07T04:00:21.497Z,94528.81
2018-03-07T04:02:47.456Z,94531.20
2018-03-07T04:05:13.498Z,94532.39
2018-03-07T04:07:39.532Z,94530.20
2018-03-07T04:10:05.523Z,94531.65
2018-03-07T04:12:31.628Z,94532.27
2018-03-07T04:14:57.657Z,94534.11
2018-03-07T04:17:23.674Z,94537.14
2018-03-07T04:19:49.666Z,94541.52
2018-03-07T04:22:15.692Z,94541.56
2018-03-07T04:24:41.693Z,94552.27
2018-03-07T04:27:07.719Z,94550.45
2018-03-07T04:29:33.739Z,94552.53
2018-03-07T04:31:59.935Z,94550.46
2018-03-07T04:34:25.948Z,94552.70
2018-03-07T04:36:51.961Z,94557.20
2018-03-07T04:39:17.977Z,94560.41
2018-03-07T04:41:43.956Z,94561.01
2018-03-07T04:44:09.970Z,94555.11
2018-03-07T04:46:35.935Z,94560.87
2018-03-07T04:49:01.930Z,94560.38
2018-03-07T04:51:28.162Z,94557.40
2018-03-07T04:53:54.197Z,94564.53
2018-03-07T04:56:20.287Z,94563.07
2018-03-07T04:58:46.332Z,94568.26
2018-03-07T05:01:12.653Z,94570.08
2018-03-07T05:03:38.734Z,94572.14
2018-03-07T05:06:04.786Z,94572.78
2018-03-07T05:08:30.797Z,94577.67
2018-03-07T05:10:56.822Z,94576.59
2018-03-07T05:13:22.836Z,94578.51
2018-03-07T05:15:48.849Z,94581.58
2018-03-07T05:18:15.249Z,94580.50
2018-03-07T05:20:41.249Z,94581.72
2018-03-07T05:23:07.245Z,94581.04
2018-03-07T05:25:33.340Z,94577.06
2018-03-07T05:27:59.372Z,94586.55
2018-03-07T05:30:25.423Z,94588.48
2018-03-07T05:32:51.435Z,94587.47
2018-03-07T05:35:17.507Z,94588.83
2018-03-07T05:37:43.463Z,94588.62
2018-03-07T05:40:09.454Z,94594.43
2018-03-07T05:42:35.551Z,94590.08
2018-03-07T05:45:01.566Z,94595.66
2018-03-07T05:47:27.527Z,94594.81
2018-03-07T05:49:53.597Z,94591.83
2018-03-07T05:52:19.613Z,94595.35
2018-03-07T05:54:45.599Z,94591.38
2018-03-07T05:57:11.641Z,94591.90
2018-03-07T05:59:37.626Z,94601.31
2018-03-07T06:02:03.636Z,94601.55
2018-03-07T06:04:29.691Z,94603.77
2018-03-07T06:06:55.775Z,94607.67
2018-03-07T06:09:21.729Z,94604.14
2018-03-07T06:11:47.811Z,94602.84
2018-03-07T06:14:14.680Z,94610.27
2018-03-07T06:16:40.673Z,94610.27
2018-03-07T06:19:06.711Z,94607.03
2018-03-07T06:21:32.766Z,94610.86
2018-03-07T06:23:58.767Z,94615.77
2018-03-07T06:26:24.706Z,94621.52
2018-03-07T06:28:50.722Z,94626.41
2018-03-07T06:31:16.802Z,94631.78
2018-03-07T06:33:42.832Z,94633.30
2018-03-07T06:36:08.853Z,94637.89
2018-03-07T06:38:34.945Z,94639.20
2018-03-07T06:41:01.413Z,94644.63
2018-03-07T06:43:27.447Z,94647.69
2018-03-07T06:45:53.482Z,94650.59
2018-03-07T06:48:19.516Z,94653.70
2018-03-07T06:50:45.534Z,94658.55
2018-03-07T06:53:11.589Z,94665.97
2018-03-07T06:55:37.633Z,94666.19
2018-03-07T06:58:03.671Z,94670.45
2018-03-07T07:00:29.652Z,94671.14
2018-03-07T07:02:55.670Z,94671.23
2018-03-07T07:05:21.726Z,94685.50
2018-03-07T07:07:47.741Z,94680.56
2018-03-07T07:10:13.780Z,94677.94
2018-03-07T07:12:39.817Z,94689.64
2018-03-07T07:15:05.910Z,94693.18
2018-03-07T07:17:31.960Z,94694.91
2018-03-07T07:19:57.960Z,94697.58
2018-03-07T07:22:24.046Z,94704.88
2018-03-07T07:24:50.062Z,94712.87
2018-03-07T07:27:16.116Z,94711.63
2018-03-07T07:29:42.099Z,94720.06
2018-03-07T07:32:08.117Z,94723.72
2018-03-07T07:34:34.146Z,94727.09
2018-03-07T07:37:00.177Z,94731.97
2018-03-07T07:39:26.218Z,94733.66
2018-03-07T07:41:52.222Z,94741.13
2018-03-07T07:44:18.248Z,94736.67
2018-03-07T07:46:44.251Z,94742.44
2018-03-07T07:49:10.318Z,94740.59
2018-03-07T07:51:36.405Z,94745.23
2018-03-07T07:54:02.482Z,94745.45
2018-03-07T07:56:28.525Z,94751.97
2018-03-07T07:58:54.490Z,94752.09
2018-03-07T08:01:20.531Z,94755.45
2018-03-07T08:03:46.546Z,94759.70
2018-03-07T08:06:12.577Z,94753.27
2018-03-07T08:08:38.565Z,94759.20
2018-03-07T08:11:04.534Z,94760.19
2018-03-07T08:13:30.577Z,94760.55
2018-03-07T08:15:56.587Z,94760.31
2018-03-07T08:18:22.603Z,94763.26
2018-03-07T08:20:48.656Z,94769.83
2018-03-07T08:23:14.671Z,94772.55
2018-03-07T08:25:40.681Z,94776.55
2018-03-07T08:28:06.732Z,94780.66
2018-03-07T08:30:32.733Z,94781.03
2018-03-07T08:32:58.741Z,94783.49
2018-03-07T08:35:24.764Z,94786.33
2018-03-07T08:37:50.768Z,94779.13
2018-03-07T08:40:16.778Z,94786.21
2018-03-07T08:42:42.835Z,94792.16
2018-03-07T08:45:08.827Z,94792.75
2018-03-07T08:47:34.821Z,94803.52
2018-03-07T08:50:00.857Z,94807.12
2018-03-07T08:52:26.889Z,94810.06
2018-03-07T08:54:52.925Z,94811.42
2018-03-07T08:57:18.977Z,94810.06
2018-03-07T08:59:44.978Z,94816.22
2018-03-07T09:02:10.993Z,94817.69
2018-03-07T09:04:36.989Z,94822.00
2018-03-07T09:07:03.020Z,94826.65
2018-03-07T09:09:29.042Z,94833.10
2018-03-07T09:11:54.997Z,94835.92
2018-03-07T09:14:21.026Z,94843.30
2018-03-07T09:16:47.033Z,94844.33
2018-03-07T09:19:13.024Z,94843.03
2018-03-07T09:21:39.018Z,94836.61
2018-03-07T09:24:05.096Z,94836.97
2018-03-07T09:26:31.140Z,94845.11
2018-03-07T09:28:57.156Z,94846.56
2018-03-07T09:31:23.204Z,94843.07
2018-03-07T09:33:49.184Z,94837.88
2018-03-07T09:36:15.242Z,94852.19
2018-03-07T09:38:41.263Z,94852.05
2018-03-07T09:41:07.305Z,94843.52
2018-03-07T09:43:33.438Z,94852.09
2018-03-07T09:45:59.496Z,94863.34
2018-03-07T09:48:25.500Z,94869.00
2018-03-07T09:50:51.503Z,94866.29
2018-03-07T09:53:17.553Z,94870.15
2018-03-07T09:55:43.609Z,94866.96
2018-03-07T09:58:09.645Z,94872.55
2018-03-07T10:00:35.656Z,94873.87
2018-03-07T10:03:01.694Z,94874.78
2018-03-07T10:05:27.722Z,94882.78
2018-03-07T10:07:53.734Z,94884.09
2018-03-07T10:10:19.730Z,94884.47
2018-03-07T10:12:45.749Z,94888.55
2018-03-07T10:15:11.761Z,94890.06
2018-03-07T10:17:37.809Z,94885.19
2018-03-07T10:20:03.969Z,94897.77
2018-03-07T10:22:29.915Z,94897.59
2018-03-07T10:24:55.898Z,94890.22
2018-03-07T10:27:21.946Z,94895.47
2018-03-07T10:29:47.980Z,94895.13
2018-03-07T10:32:13.983Z,94891.13
2018-03-07T10:34:40.018Z,94905.15
2018-03-07T10:37:06.028Z,94905.61
2018-03-07T10:39:32.037Z,94909.08
2018-03-07T10:41:58.049Z,94913.64
2018-03-07T10:44:24.090Z,94903.16
2018-03-07T10:46:50.109Z,94908.08
2018-03-07T10:49:16.270Z,94909.45
2018-03-07T10:51:42.243Z,94911.08
2018-03-07T10:54:08.213Z,94914.97
2018-03-07T10:56:34.252Z,94906.06
2018-03-07T10:59:00.292Z,94907.84
2018-03-07T11:01:26.292Z,94917.15
2018-03-07T11:03:52.320Z,94908.53
2018-03-07T11:06:18.353Z,94916.48
2018-03-07T11:08:44.438Z,94914.38
2018-03-07T11:11:10.518Z,94917.19
2018-03-07T11:13:36.501Z,94913.09
2018-03-07T11:16:02.533Z,94923.86
2018-03-07T11:18:28.482Z,94917.59
2018-03-07T11:20:54.452Z,94922.97
2018-03-07T11:23:20.488Z,94922.31
2018-03-07T11:25:46.506Z,94921.20
2018-03-07T11:28:12.543Z,94916.95
2018-03-07T11:30:38.553Z,94924.03
2018-03-07T11:33:04.553Z,94926.08
2018-03-07T11:35:30.558Z,94922.80
2018-03-07T11:37:56.572Z,94926.41
2018-03-07T11:40:22.582Z,94928.62
2018-03-07T11:42:48.608Z,94919.58
2018-03-07T11:45:14.590Z,94932.79
2018-03-07T11:47:40.649Z,94938.65
2018-03-07T11:50:06.675Z,94936.61
2018-03-07T11:52:32.681Z,94935.77
2018-03-07T11:54:58.721Z,94948.71
2018-03-07T11:57:24.734Z,94946.64
2018-03-07T11:59:50.778Z,94945.26
2018-03-07T12:02:16.801Z,94946.77
2018-03-07T12:04:42.840Z,94960.44
2018-03-07T12:07:08.885Z,94960.12
2018-03-07T12:09:34.838Z,94960.26
2018-03-07T12:12:00.927Z,94965.67
2018-03-07T12:14:26.949Z,94958.17
2018-03-07T12:16:52.955Z,94954.25
2018-03-07T12:19:18.993Z,94940.48
2018-03-07T12:21:45.024Z,94952.22
2018-03-07T12:24:11.042Z,94962.23
2018-03-07T12:26:37.122Z,94959.91
2018-03-07T12:29:03.177Z,94959.00
2018-03-07T12:31:29.185Z,94947.05
2018-03-07T12:33:55.225Z,94953.67
2018-03-07T12:36:21.258Z,94952.15
2018-03-07T12:38:47.300Z,94960.31
2018-03-07T12:41:13.340Z,94956.23
2018-03-07T12:43:39.354Z,94957.20
2018-03-07T12:46:05.350Z,94965.73
2018-03-07T12:48:31.360Z,94968.75
2018-03-07T12:50:57.437Z,94966.80
2018-03-07T12:53:23.488Z,94971.36
2018-03-07T12:55:49.492Z,94967.52
2018-03-07T12:58:15.562Z,94970.19
2018-03-07T13:00:41.604Z,94969.91
2018-03-07T13:03:07.645Z,94963.55
2018-03-07T13:05:33.689Z,94961.98
2018-03-07T13:07:59.725Z,94976.66
2018-03-07T13:10:25.764Z,94969.60
2018-03-07T13:12:51.803Z,94975.01
2018-03-07T13:15:17.809Z,94980.48
2018-03-07T13:17:43.813Z,94979.85
2018-03-07T13:20:09.837Z,94986.98
2018-03-07T13:22:35.849Z,94981.55
2018-03-07T13:25:01.854Z,94995.46
2018-03-07T13:27:27.905Z,94986.53
2018-03-07T13:29:54.035Z,94989.68
2018-03-07T13:32:20.027Z,94987.05
2018-03-07T13:34:46.080Z,94995.34
2018-03-07T13:37:12.086Z,94992.79
2018-03-07T13:39:38.084Z,94993.89
2018-03-07T13:42:04.049Z,94993.26
2018-03-07T13:44:30.058Z,94994.65
2018-03-07T13:46:56.096Z,95001.56
2018-03-07T13:49:22.123Z,94999.84
2018-03-07T13:51:48.087Z,94998.22
2018-03-07T13:54:14.105Z,94990.27
2018-03-07T13:56:40.164Z,94991.98
2018-03-07T13:59:06.187Z,95001.17
2018-03-07T14:01:32.154Z,94998.04
2018-03-07T14:03:58.176Z,95000.95
2018-03-07T14:06:24.194Z,95005.38
2018-03-07T14:08:50.265Z,95009.22
2018-03-07T14:11:16.297Z,94998.63
2018-03-07T14:13:42.294Z,95003.55
2018-03-07T14:16:08.317Z,95015.14
2018-03-07T14:18:34.314Z,95012.16
2018-03-07T14:21:00.345Z,95010.61
2018-03-07T14:23:26.373Z,95007.44
2018-03-07T14:25:52.389Z,95017.59
2018-03-07T14:28:18.433Z,95009.60
2018-03-07T14:30:44.397Z,95008.72
2018-03-07T14:33:10.446Z,95012.12
2018-03-07T14:35:36.474Z,95016.03
2018-03-07T14:38:02.537Z,95012.59
2018-03-07T14:40:28.676Z,95015.84
2018-03-07T14:42:54.717Z,95023.63
2018-03-07T14:45:20.717Z,95023.73
2018-03-07T14:47:46.803Z,95023.14
2018-03-07T14:50:12.793Z,95029.70
2018-03-07T14:52:38.790Z,95031.20
2018-03-07T14:55:04.958Z,95014.87
2018-03-07T14:57:30.928Z,95029.45
2018-03-07T14:59:56.969Z,95030.89
2018-03-07T15:02:23.001Z,95033.89
2018-03-07T15:04:48.991Z,95034.92
2018-03-07T15:07:15.079Z,95032.02
2018-03-07T15:09:41.129Z,95038.87
2018-03-07T15:12:07.226Z,95035.76
2018-03-07T15:14:33.177Z,95039.51
2018-03-07T15:16:59.259Z,95043.28
2018-03-07T15:19:25.272Z,95045.66
2018-03-07T15:21:51.266Z,95037.23
2018-03-07T15:24:17.302Z,95035.47
2018-03-07T15:26:43.402Z,95040.38
2018-03-07T15:29:09.442Z,95046.79
2018-03-07T15:31:35.481Z,95041.24
2018-03-07T15:34:01.585Z,95045.70
2018-03-07T15:36:27.617Z,95039.81
2018-03-07T15:38:53.708Z,95042.44
2018-03-07T15:41:19.726Z,95043.38
2018-03-07T15:43:45.740Z,95045.18
2018-03-07T15:46:11.858Z,95051.00
2018-03-07T15:48:37.878Z,95044.17
2018-03-07T15:51:03.933Z,95050.41
2018-03-07T15:53:30.027Z,95053.30
2018-03-07T15:55:56.140Z,95051.22
2018-03-07T15:58:22.177Z,95057.03
2018-03-07T16:00:48.267Z,95058.35
2018-03-07T16:03:14.655Z,95059.49
2018-03-07T16:05:40.688Z,95061.87
2018-03-07T16:08:06.707Z,95052.67
2018-03-07T16:10:32.661Z,95058.27
2018-03-07T16:12:58.729Z,95066.03
2018-03-07T16:15:24.813Z,95065.08
2018-03-07T16:17:50.965Z,95066.23
2018-03-07T16:20:17.006Z,95069.41
2018-03-07T16:22:43.030Z,95072.98
2018-03-07T16:25:09.213Z,95076.41
2018-03-07T16:27:35.262Z,95076.55
2018-03-07T16:30:01.988Z,95072.60
2018-03-07T16:32:28.042Z,95080.42
2018-03-07T16:34:54.116Z,95081.66
2018-03-07T16:37:20.231Z,95088.19
2018-03-07T16:39:46.283Z,95086.23
2018-03-07T16:42:12.364Z,95087.72
2018-03-07T16:44:38.445Z,95091.17
2018-03-07T16:47:04.538Z,95092.48
2018-03-07T16:49:30.612Z,95105.09
2018-03-07T16:51:56.685Z,95102.58
2018-03-07T16:54:22.736Z,95098.34
2018-03-07T16:56:48.839Z,95105.50
2018-03-07T16:59:14.922Z,95104.70
2018-03-07T17:01:40.991Z,95113.64
2018-03-07T17:04:07.013Z,95117.92
2018-03-07T17:06:33.108Z,95119.73
2018-03-07T17:08:59.154Z,95125.05
2018-03-07T17:11:25.122Z,95133.36
2018-03-07T17:13:51.169Z,95130.89
2018-03-07T17:16:17.190Z,95135.38
2018-03-07T17:18:43.230Z,95141.99
2018-03-07T17:21:09.325Z,95149.55
2018-03-07T17:23:35.580Z,95147.52
2018-03-07T17:26:01.646Z,95149.99
2018-03-07T17:28:27.649Z,95153.42
2018-03-07T17:30:53.657Z,95162.33
2018-03-07T17:33:19.663Z,95162.09
2018-03-07T17:35:45.737Z,95158.92
2018-03-07T17:38:11.809Z,95165.98
2018-03-07T17:40:37.902Z,95160.42
2018-03-07T17:43:04.062Z,95165.36
2018-03-07T17:45:30.107Z,95166.28
2018-03-07T17:47:56.126Z,95174.59
2018-03-07T17:50:22.173Z,95170.82
2018-03-07T17:52:48.193Z,95173.50
2018-03-07T17:55:14.300Z,95178.03
2018-03-07T17:57:40.310Z,95181.15
2018-03-07T18:00:06.449Z,95185.78
2018-03-07T18:02:32.489Z,95186.55
2018-03-07T18:04:58.547Z,95189.78
2018-03-07T18:07:24.661Z,95187.81
2018-03-07T18:09:50.708Z,95197.04
2018-03-07T18:12:16.743Z,95195.50
2018-03-07T18:14:42.810Z,95196.11
2018-03-07T18:17:08.919Z,95204.42
2018-03-07T18:19:35.016Z,95201.13
2018-03-07T18:22:01.104Z,95202.86
2018-03-07T18:24:27.157Z,95199.64
2018-03-07T18:26:53.204Z,95197.81
2018-03-07T18:29:19.275Z,95201.69
2018-03-07T18:31:45.299Z,95204.61
2018-03-07T18:34:11.309Z,95207.99
2018-03-07T18:36:37.372Z,95209.87
2018-03-07T18:39:03.399Z,95208.93
2018-03-07T18:41:29.398Z,95206.13
2018-03-07T18:43:55.512Z,95206.34
2018-03-07T18:46:21.581Z,95208.02
2018-03-07T18:48:47.690Z,95203.74
2018-03-07T18:51:13.767Z,95213.20
2018-03-07T18:53:39.869Z,95216.63
2018-03-07T18:56:05.958Z,95212.44
2018-03-07T18:58:32.053Z,95222.02
2018-03-07T19:00:58.180Z,95218.62
2018-03-07T19:03:24.310Z,95213.48
2018-03-07T19:05:50.353Z,95215.58
2018-03-07T19:13:09.920Z,95225.88
2018-03-07T19:15:35.954Z,95230.02
2018-03-07T19:18:02.016Z,95233.77
2018-03-07T19:20:28.047Z,95232.23
2018-03-07T19:22:54.386Z,95232.25
2018-03-07T19:25:20.474Z,95230.41
2018-03-07T19:27:46.568Z,95239.64
2018-03-07T19:30:12.502Z,95232.67
2018-03-07T19:32:38.522Z,95238.02
2018-03-07T19:35:04.635Z,95238.41
2018-03-07T19:37:30.654Z,95241.72
2018-03-07T19:39:56.722Z,95248.67
2018-03-07T19:42:22.743Z,95250.26
2018-03-07T19:44:48.823Z,95251.64
2018-03-07T19:47:14.942Z,95255.89
2018-03-07T19:49:41.081Z,95257.49
2018-03-07T19:52:07.314Z,95263.09
2018-03-07T19:54:36.533Z,95261.95
2018-03-07T19:57:02.636Z,95264.64
2018-03-07T19:59:28.685Z,95266.72
2018-03-07T20:01:54.705Z,95270.02
2018-03-07T20:04:20.776Z,95270.50
2018-03-07T20:06:46.831Z,95273.34
2018-03-07T20:09:12.839Z,95269.96
2018-03-07T20:11:38.977Z,95276.26
2018-03-07T20:14:05.010Z,95276.17
2018-03-07T20:16:31.054Z,95285.88
2018-03-07T20:18:57.248Z,95285.39
2018-03-07T20:21:23.317Z,95281.55
2018-03-07T20:23:49.333Z,95283.40
2018-03-07T20:26:15.277Z,95285.88
2018-03-07T20:28:42.318Z,95287.64
2018-03-07T20:31:08.466Z,95296.39
2018-03-07T20:33:34.438Z,95297.69
2018-03-07T20:36:00.480Z,95302.44
2018-03-07T20:38:26.530Z,95305.26
2018-03-07T20:40:52.537Z,95309.97
2018-03-07T20:43:18.621Z,95321.73
2018-03-07T20:45:44.675Z,95326.20
2018-03-07T20:48:10.724Z,95326.94
2018-03-07T20:50:36.769Z,95333.77
2018-03-07T20:53:02.825Z,95333.41
2018-03-07T20:55:28.862Z,95335.79
2018-03-07T20:57:54.849Z,95337.55
2018-03-07T21:00:20.940Z,95337.92
2018-03-07T21:02:47.013Z,95337.27
2018-03-07T21:05:13.093Z,95337.75
2018-03-07T21:07:39.072Z,95346.72
2018-03-07T21:10:05.094Z,95349.47
2018-03-07T21:12:31.058Z,95344.97
2018-03-07T21:14:57.074Z,95348.77
2018-03-07T21:17:23.076Z,95343.14
2018-03-07T21:19:49.084Z,95336.50
2018-03-07T21:22:15.161Z,95340.08
2018-03-07T21:24:41.174Z,95335.67
2018-03-07T21:27:07.209Z,95333.94
2018-03-07T21:29:33.217Z,95343.41
2018-03-07T21:31:59.199Z,95339.78
2018-03-07T21:34:25.246Z,95350.87
2018-03-07T21:36:51.303Z,95351.92
2018-03-07T21:39:17.273Z,95347.91
2018-03-07T21:41:43.294Z,95349.45
2018-03-07T21:44:09.322Z,95353.30
2018-03-07T21:46:35.377Z,95355.39
2018-03-07T21:49:01.403Z,95359.92
2018-03-07T21:51:28.345Z,95368.61
2018-03-07T21:53:54.313Z,95373.84
2018-03-07T21:56:20.370Z,95370.92
2018-03-07T21:58:46.393Z,95380.72
2018-03-07T22:01:12.521Z,95377.02
2018-03-07T22:03:38.524Z,95374.44
2018-03-07T22:06:04.548Z,95371.69
2018-03-07T22:08:30.629Z,95376.97
2018-03-07T22:10:56.620Z,95389.07
2018-03-07T22:13:22.619Z,95390.45
2018-03-07T22:15:48.613Z,95390.61
2018-03-07T22:18:14.633Z,95389.30
2018-03-07T22:20:40.575Z,95392.69
2018-03-07T22:23:06.646Z,95394.02
2018-03-07T22:25:32.673Z,95399.50
2018-03-07T22:27:58.691Z,95400.58
2018-03-07T22:30:24.737Z,95399.45
2018-03-07T22:32:50.784Z,95405.95
2018-03-07T22:35:16.797Z,95403.77
2018-03-07T22:37:42.842Z,95408.03
2018-03-07T22:40:08.870Z,95414.89
2018-03-07T22:42:34.859Z,95413.27
2018-03-07T22:45:00.881Z,95420.67
2018-03-07T22:47:26.901Z,95419.90
2018-03-07T22:49:52.909Z,95429.20
2018-03-07T22:52:18.921Z,95427.73
2018-03-07T22:54:44.956Z,95429.81
2018-03-07T22:57:10.996Z,95432.19
2018-03-07T22:59:37.093Z,95429.04
2018-03-07T23:02:03.062Z,95433.05
2018-03-07T23:04:36.222Z,95430.89
2018-03-07T23:07:02.259Z,95432.27
2018-03-07T23:09:28.258Z,95433.73
2018-03-07T23:11:54.282Z,95436.25
2018-03-07T23:14:20.295Z,95448.28
2018-03-07T23:16:46.306Z,95447.45
2018-03-07T23:19:12.273Z,95446.97
2018-03-07T23:21:38.253Z,95451.54
2018-03-07T23:24:04.300Z,95444.23
2018-03-07T23:26:30.394Z,95449.31
2018-03-07T23:28:56.382Z,95454.83
2018-03-07T23:31:22.394Z,95450.91
2018-03-07T23:33:48.497Z,95452.16
2018-03-07T23:36:14.489Z,95457.38
2018-03-07T23:38:40.512Z,95460.67
2018-03-07T23:41:06.521Z,95463.06
2018-03-07T23:43:32.525Z,95461.74
2018-03-07T23:45:58.549Z,95452.82
2018-03-07T23:48:24.588Z,95465.92
2018-03-07T23:50:50.629Z,95463.67
2018-03-07T23:53:16.755Z,95461.21
2018-03-07T23:55:42.690Z,95463.91
2018-03-07T23:58:08.673Z,95468.44
